createdAt,value
2023-07-30T00:01:11.039Z,97564.03
2023-07-30T00:03:38.852Z,97559.59
2023-07-30T00:06:05.745Z,97562.13
2023-07-30T00:08:32.537Z,97559.78
2023-07-30T00:11:00.174Z,97564.59
2023-07-30T00:13:27.112Z,97564.97
2023-07-30T00:15:53.892Z,97559.06
2023-07-30T00:18:20.923Z,97564.91
2023-07-30T00:20:47.670Z,97566.78
2023-07-30T00:23:15.078Z,97559.00
2023-07-30T00:25:44.064Z,97556.63
2023-07-30T00:28:10.914Z,97561.25
2023-07-30T00:30:37.669Z,97558.72
2023-07-30T00:33:04.512Z,97562.88
2023-07-30T00:35:31.287Z,97563.03
2023-07-30T00:37:58.054Z,97560.72
2023-07-30T00:40:25.595Z,97575.97
2023-07-30T00:42:52.345Z,97577.00
2023-07-30T00:45:19.185Z,97579.06
2023-07-30T00:47:46.123Z,97576.53
2023-07-30T00:50:15.021Z,97562.22
2023-07-30T00:52:44.828Z,97567.03
2023-07-30T00:55:12.425Z,97572.84
2023-07-30T00:57:40.461Z,97573.91
2023-07-30T01:00:10.544Z,97588.78
2023-07-30T01:02:38.249Z,97578.25
2023-07-30T01:05:05.766Z,97588.69
2023-07-30T01:07:33.519Z,97585.66
2023-07-30T01:10:01.968Z,97589.81
2023-07-30T01:12:31.404Z,97599.56
2023-07-30T01:15:00.079Z,97601.16
2023-07-30T01:17:27.197Z,97594.78
2023-07-30T01:19:58.889Z,97602.84
2023-07-30T01:22:25.756Z,97610.94
2023-07-30T01:24:52.989Z,97611.66
2023-07-30T01:27:43.962Z,97609.84
2023-07-30T01:30:26.996Z,97618.94
2023-07-30T01:32:55.907Z,97615.28
2023-07-30T01:35:26.840Z,97620.41
2023-07-30T01:37:54.698Z,97627.44
2023-07-30T01:40:22.620Z,97619.16
2023-07-30T01:42:52.608Z,97617.16
2023-07-30T01:45:19.625Z,97623.47
2023-07-30T01:47:46.570Z,97622.53
2023-07-30T01:50:14.694Z,97632.44
2023-07-30T01:52:41.466Z,97631.44
2023-07-30T01:55:08.725Z,97630.13
2023-07-30T01:57:35.538Z,97629.78
2023-07-30T02:00:02.528Z,97629.31
2023-07-30T02:02:29.470Z,97638.88
2023-07-30T02:04:56.250Z,97635.63
2023-07-30T02:07:23.405Z,97631.59
2023-07-30T02:09:51.698Z,97636.06
2023-07-30T02:12:18.510Z,97633.84
2023-07-30T02:14:45.237Z,97631.31
2023-07-30T02:17:13.022Z,97628.78
2023-07-30T02:19:39.767Z,97636.44
2023-07-30T02:22:06.715Z,97633.41
2023-07-30T02:24:33.498Z,97632.91
2023-07-30T02:27:00.208Z,97641.59
2023-07-30T02:29:26.994Z,97637.50
2023-07-30T02:31:53.786Z,97637.00
2023-07-30T02:34:20.602Z,97636.50
2023-07-30T02:36:47.301Z,97634.13
2023-07-30T02:39:13.994Z,97638.22
2023-07-30T02:41:41.113Z,97638.56
2023-07-30T02:44:08.840Z,97637.03
2023-07-30T02:46:35.561Z,97639.75
2023-07-30T02:49:02.401Z,97640.09
2023-07-30T02:51:29.614Z,97640.28
2023-07-30T02:54:02.764Z,97638.59
2023-07-30T02:56:29.553Z,97639.63
2023-07-30T02:58:56.286Z,97639.94
2023-07-30T03:01:24.101Z,97636.22
2023-07-30T03:03:50.867Z,97637.22
2023-07-30T03:06:20.440Z,97636.41
2023-07-30T03:08:47.139Z,97644.38
2023-07-30T03:11:14.900Z,97633.31
2023-07-30T03:13:41.815Z,97640.47
2023-07-30T03:16:08.540Z,97638.41
2023-07-30T03:18:35.305Z,97649.13
2023-07-30T03:21:02.255Z,97649.31
2023-07-30T03:23:29.469Z,97643.84
2023-07-30T03:25:56.311Z,97648.25
2023-07-30T03:28:23.646Z,97645.38
2023-07-30T03:30:50.946Z,97644.34
2023-07-30T03:33:17.727Z,97661.38
2023-07-30T03:35:45.451Z,97662.03
2023-07-30T03:38:12.218Z,97667.16
2023-07-30T03:40:38.982Z,97664.91
2023-07-30T03:43:05.776Z,97666.44
2023-07-30T03:45:33.189Z,97665.41
2023-07-30T03:48:00.282Z,97674.06
2023-07-30T03:50:27.212Z,97668.47
2023-07-30T03:52:54.335Z,97675.63
2023-07-30T03:55:22.464Z,97663.72
2023-07-30T03:57:49.465Z,97676.13
2023-07-30T04:00:16.523Z,97674.78
2023-07-30T04:02:43.440Z,97674.25
2023-07-30T04:05:10.372Z,97672.69
2023-07-30T04:07:40.732Z,97665.69
2023-07-30T04:10:10.094Z,97668.75
2023-07-30T04:12:37.001Z,97671.09
2023-07-30T04:15:04.420Z,97673.31
2023-07-30T04:17:31.650Z,97669.19
2023-07-30T04:19:58.419Z,97671.22
2023-07-30T04:22:25.159Z,97666.94
2023-07-30T04:24:51.955Z,97668.09
2023-07-30T04:27:18.773Z,97678.28
2023-07-30T04:29:45.556Z,97677.38
2023-07-30T04:32:12.336Z,97690.94
2023-07-30T04:34:39.573Z,97683.94
2023-07-30T04:37:07.341Z,97681.38
2023-07-30T04:39:34.489Z,97678.94
2023-07-30T04:42:01.231Z,97683.69
2023-07-30T04:44:28.237Z,97684.47
2023-07-30T04:46:55.461Z,97685.63
2023-07-30T04:49:22.428Z,97690.16
2023-07-30T04:51:49.122Z,97686.72
2023-07-30T04:54:16.240Z,97684.78
2023-07-30T04:56:42.947Z,97688.91
2023-07-30T04:59:09.721Z,97683.41
2023-07-30T05:01:36.738Z,97682.78
2023-07-30T05:04:03.774Z,97682.81
2023-07-30T05:06:32.169Z,97692.72
2023-07-30T05:08:58.956Z,97690.47
2023-07-30T05:11:25.693Z,97697.44
2023-07-30T05:13:52.462Z,97688.44
2023-07-30T05:16:19.784Z,97685.47
2023-07-30T05:18:46.567Z,97688.16
2023-07-30T05:21:13.372Z,97693.41
2023-07-30T05:23:40.099Z,97708.09
2023-07-30T05:26:06.883Z,97700.84
2023-07-30T05:28:34.432Z,97704.22
2023-07-30T05:31:01.232Z,97712.34
2023-07-30T05:33:30.768Z,97714.78
2023-07-30T05:35:57.786Z,97713.00
2023-07-30T05:38:25.568Z,97723.03
2023-07-30T05:40:52.373Z,97728.63
2023-07-30T05:43:19.188Z,97734.47
2023-07-30T05:45:46.538Z,97725.91
2023-07-30T05:48:14.620Z,97721.97
2023-07-30T05:50:41.403Z,97723.47
2023-07-30T05:53:08.108Z,97723.56
2023-07-30T05:55:35.517Z,97727.19
2023-07-30T05:58:02.236Z,97728.06
2023-07-30T06:00:29.043Z,97722.00
2023-07-30T06:03:00.655Z,97720.53
2023-07-30T06:05:27.425Z,97722.94
2023-07-30T06:07:54.235Z,97725.25
2023-07-30T06:10:20.936Z,97726.34
2023-07-30T06:12:47.694Z,97730.13
2023-07-30T06:15:14.847Z,97719.56
2023-07-30T06:17:42.704Z,97719.09
2023-07-30T06:20:10.145Z,97717.78
2023-07-30T06:22:36.971Z,97722.50
2023-07-30T06:25:04.510Z,97715.72
2023-07-30T06:27:32.339Z,97722.19
2023-07-30T06:29:59.133Z,97724.16
2023-07-30T06:32:26.067Z,97723.63
2023-07-30T06:34:52.884Z,97715.03
2023-07-30T06:37:19.818Z,97715.22
2023-07-30T06:39:47.798Z,97717.19
2023-07-30T06:42:14.637Z,97723.50
2023-07-30T06:44:41.687Z,97724.09
2023-07-30T06:47:08.463Z,97713.94
2023-07-30T06:49:38.428Z,97715.00
2023-07-30T06:52:05.801Z,97713.19
2023-07-30T06:54:32.640Z,97710.69
2023-07-30T06:56:59.469Z,97715.09
2023-07-30T06:59:26.269Z,97705.75
2023-07-30T07:01:54.639Z,97706.06
2023-07-30T07:04:21.478Z,97705.63
2023-07-30T07:06:48.169Z,97711.91
2023-07-30T07:09:15.098Z,97708.75
2023-07-30T07:11:41.939Z,97716.31
2023-07-30T07:14:10.078Z,97715.13
2023-07-30T07:16:37.236Z,97715.81
2023-07-30T07:19:04.787Z,97701.63
2023-07-30T07:21:31.581Z,97712.53
2023-07-30T07:24:00.441Z,97715.84
2023-07-30T07:26:27.350Z,97713.47
2023-07-30T07:28:54.032Z,97723.66
2023-07-30T07:31:20.845Z,97695.38
2023-07-30T07:33:47.635Z,97699.44
2023-07-30T07:36:15.458Z,97709.66
2023-07-30T07:38:42.234Z,97706.38
2023-07-30T07:41:09.148Z,97711.91
2023-07-30T07:43:37.808Z,97713.34
2023-07-30T07:46:04.729Z,97723.13
2023-07-30T07:48:31.505Z,97709.72
2023-07-30T07:50:58.223Z,97704.84
2023-07-30T07:53:25.248Z,97693.91
2023-07-30T07:55:51.969Z,97702.75
2023-07-30T07:58:18.782Z,97702.28
2023-07-30T08:00:45.511Z,97694.16
2023-07-30T08:03:12.606Z,97694.38
2023-07-30T08:05:41.703Z,97690.09
2023-07-30T08:08:08.770Z,97689.94
2023-07-30T08:10:40.780Z,97687.28
2023-07-30T08:13:08.740Z,97692.66
2023-07-30T08:15:35.723Z,97693.59
2023-07-30T08:18:02.572Z,97695.25
2023-07-30T08:20:29.358Z,97706.16
2023-07-30T08:22:56.088Z,97709.72
2023-07-30T08:25:23.705Z,97706.69
2023-07-30T08:27:50.528Z,97700.44
2023-07-30T08:30:17.397Z,97707.69
2023-07-30T08:32:45.016Z,97717.72
2023-07-30T08:35:11.744Z,97717.50
2023-07-30T08:37:38.502Z,97719.38
2023-07-30T08:40:05.780Z,97712.78
2023-07-30T08:42:32.901Z,97721.75
2023-07-30T08:45:00.763Z,97705.09
2023-07-30T08:47:27.651Z,97723.31
2023-07-30T08:49:54.529Z,97720.06
2023-07-30T08:52:24.786Z,97728.00
2023-07-30T08:54:53.391Z,97726.84
2023-07-30T08:57:21.562Z,97732.47
2023-07-30T08:59:54.149Z,97736.56
2023-07-30T09:02:31.592Z,97732.69
2023-07-30T09:05:02.264Z,97727.44
2023-07-30T09:07:29.562Z,97737.00
2023-07-30T09:09:56.826Z,97728.00
2023-07-30T09:12:36.566Z,97725.63
2023-07-30T09:15:07.848Z,97727.50
2023-07-30T09:17:38.123Z,97726.31
2023-07-30T09:20:07.121Z,97726.94
2023-07-30T09:22:37.700Z,97726.56
2023-07-30T09:25:04.984Z,97724.34
2023-07-30T09:27:33.812Z,97721.41
2023-07-30T09:30:08.557Z,97725.06
2023-07-30T09:32:37.146Z,97728.25
2023-07-30T09:35:07.906Z,97717.84
2023-07-30T09:37:39.410Z,97722.84
2023-07-30T09:40:08.503Z,97720.00
2023-07-30T09:42:39.125Z,97719.03
2023-07-30T09:45:08.309Z,97717.78
2023-07-30T09:47:37.845Z,97709.78
2023-07-30T09:50:04.844Z,97705.38
2023-07-30T09:52:32.133Z,97707.69
2023-07-30T09:54:59.851Z,97704.66
2023-07-30T09:57:27.770Z,97709.47
2023-07-30T09:59:58.190Z,97703.06
2023-07-30T10:02:32.912Z,97700.84
2023-07-30T10:05:02.105Z,97705.84
2023-07-30T10:07:29.745Z,97710.28
2023-07-30T10:10:01.310Z,97711.38
2023-07-30T10:12:32.664Z,97712.16
2023-07-30T10:15:04.081Z,97715.16
2023-07-30T10:17:34.139Z,97708.75
2023-07-30T10:20:23.199Z,97706.44
2023-07-30T10:22:53.724Z,97700.16
2023-07-30T10:25:24.254Z,97704.75
2023-07-30T10:27:54.100Z,97697.56
2023-07-30T10:30:21.964Z,97697.16
2023-07-30T10:33:01.267Z,97693.13
2023-07-30T10:35:41.735Z,97694.97
2023-07-30T10:38:30.294Z,97685.22
2023-07-30T10:41:10.541Z,97690.66
2023-07-30T10:43:40.877Z,97684.75
2023-07-30T10:46:09.695Z,97687.56
2023-07-30T10:48:39.098Z,97682.00
2023-07-30T10:51:08.611Z,97681.22
2023-07-30T10:53:39.799Z,97700.16
2023-07-30T10:56:08.239Z,97690.91
2023-07-30T10:58:36.736Z,97696.06
2023-07-30T11:01:09.006Z,97686.19
2023-07-30T11:03:39.559Z,97695.63
2023-07-30T11:06:07.077Z,97692.53
2023-07-30T11:08:37.894Z,97690.47
2023-07-30T11:11:06.116Z,97690.72
2023-07-30T11:13:39.713Z,97685.50
2023-07-30T11:16:13.066Z,97687.50
2023-07-30T11:18:40.744Z,97683.09
2023-07-30T11:21:14.870Z,97693.19
2023-07-30T11:23:43.130Z,97688.41
2023-07-30T11:26:16.670Z,97684.75
2023-07-30T11:28:44.334Z,97679.16
2023-07-30T11:31:15.887Z,97689.06
2023-07-30T11:33:44.721Z,97688.03
2023-07-30T11:36:27.555Z,97682.44
2023-07-30T11:38:54.839Z,97675.19
2023-07-30T11:41:24.566Z,97687.47
2023-07-30T11:43:52.836Z,97680.56
2023-07-30T11:46:23.643Z,97679.41
2023-07-30T11:48:54.782Z,97681.53
2023-07-30T11:51:25.472Z,97681.47
2023-07-30T11:54:00.373Z,97668.31
2023-07-30T11:56:31.683Z,97669.63
2023-07-30T11:59:08.670Z,97670.38
2023-07-30T12:01:38.672Z,97671.50
2023-07-30T12:04:07.150Z,97677.88
2023-07-30T12:06:50.755Z,97675.56
2023-07-30T12:09:23.556Z,97669.00
2023-07-30T12:11:58.866Z,97668.69
2023-07-30T12:14:51.707Z,97670.03
2023-07-30T12:17:19.671Z,97668.78
2023-07-30T12:19:46.508Z,97671.25
2023-07-30T12:22:13.233Z,97673.06
2023-07-30T12:24:42.919Z,97668.03
2023-07-30T12:27:09.710Z,97659.81
2023-07-30T12:29:36.818Z,97665.38
2023-07-30T12:32:04.994Z,97663.44
2023-07-30T12:34:31.863Z,97657.69
2023-07-30T12:37:00.196Z,97652.59
2023-07-30T12:39:26.945Z,97660.03
2023-07-30T12:41:53.743Z,97655.94
2023-07-30T12:44:21.080Z,97655.75
2023-07-30T12:46:47.763Z,97652.50
2023-07-30T12:49:14.719Z,97658.63
2023-07-30T12:51:42.191Z,97652.00
2023-07-30T12:54:09.329Z,97649.72
2023-07-30T12:56:37.740Z,97646.84
2023-07-30T12:59:05.719Z,97643.00
2023-07-30T13:01:32.576Z,97649.22
2023-07-30T13:03:59.886Z,97648.16
2023-07-30T13:06:26.699Z,97652.69
2023-07-30T13:08:55.076Z,97651.91
2023-07-30T13:11:21.794Z,97645.03
2023-07-30T13:13:48.588Z,97642.84
2023-07-30T13:16:15.391Z,97641.84
2023-07-30T13:18:43.007Z,97636.13
2023-07-30T13:21:09.756Z,97632.00
2023-07-30T13:23:36.505Z,97639.16
2023-07-30T13:26:04.305Z,97638.72
2023-07-30T13:28:31.123Z,97634.66
2023-07-30T13:30:58.819Z,97630.59
2023-07-30T13:33:26.148Z,97633.25
2023-07-30T13:35:53.149Z,97629.19
2023-07-30T13:38:22.798Z,97628.56
2023-07-30T13:40:49.704Z,97623.63
2023-07-30T13:43:16.935Z,97630.69
2023-07-30T13:45:45.003Z,97622.97
2023-07-30T13:48:12.728Z,97624.91
2023-07-30T13:50:39.485Z,97622.59
2023-07-30T13:53:06.337Z,97628.00
2023-07-30T13:55:33.153Z,97616.22
2023-07-30T13:58:00.265Z,97616.59
2023-07-30T14:00:27.126Z,97613.31
2023-07-30T14:02:54.004Z,97615.03
2023-07-30T14:05:20.780Z,97611.88
2023-07-30T14:07:47.523Z,97611.31
2023-07-30T14:10:14.802Z,97609.13
2023-07-30T14:12:41.575Z,97607.72
2023-07-30T14:15:08.980Z,97607.28
2023-07-30T14:17:36.936Z,97612.97
2023-07-30T14:20:04.163Z,97600.13
2023-07-30T14:22:31.897Z,97605.06
2023-07-30T14:25:00.222Z,97606.53
2023-07-30T14:27:27.028Z,97612.25
2023-07-30T14:29:56.037Z,97612.25
2023-07-30T14:32:23.115Z,97604.28
2023-07-30T14:34:50.426Z,97603.19
2023-07-30T14:37:17.211Z,97605.59
2023-07-30T14:39:45.884Z,97604.28
2023-07-30T14:42:12.586Z,97605.94
2023-07-30T14:44:42.736Z,97603.19
2023-07-30T14:47:09.738Z,97602.09
2023-07-30T14:49:37.045Z,97600.53
2023-07-30T14:52:04.954Z,97606.41
2023-07-30T14:54:32.759Z,97602.88
2023-07-30T14:56:59.496Z,97591.81
2023-07-30T14:59:26.545Z,97603.53
2023-07-30T15:01:53.337Z,97607.06
2023-07-30T15:04:20.789Z,97596.09
2023-07-30T15:06:48.433Z,97594.94
2023-07-30T15:09:15.704Z,97599.28
2023-07-30T15:11:44.920Z,97597.22
2023-07-30T15:14:11.666Z,97596.53
2023-07-30T15:16:38.987Z,97594.97
2023-07-30T15:19:07.338Z,97608.50
2023-07-30T15:21:34.132Z,97603.47
2023-07-30T15:24:02.128Z,97592.63
2023-07-30T15:26:28.880Z,97596.22
2023-07-30T15:28:55.572Z,97598.22
2023-07-30T15:31:22.414Z,97596.72
2023-07-30T15:33:49.148Z,97593.56
2023-07-30T15:36:16.153Z,97595.06
2023-07-30T15:38:43.181Z,97599.31
2023-07-30T15:41:10.976Z,97599.72
2023-07-30T15:43:37.789Z,97599.06
2023-07-30T15:48:35.126Z,97604.88
2023-07-30T15:51:03.147Z,97606.22
2023-07-30T15:53:30.091Z,97608.41
2023-07-30T15:56:01.466Z,97603.81
2023-07-30T15:58:30.183Z,97606.50
2023-07-30T16:00:59.862Z,97605.94
2023-07-30T16:03:26.806Z,97602.41
2023-07-30T16:05:53.635Z,97603.38
2023-07-30T16:08:21.938Z,97611.72
2023-07-30T16:10:48.673Z,97604.25
2023-07-30T16:13:15.490Z,97613.81
2023-07-30T16:15:42.776Z,97620.66
2023-07-30T16:18:09.491Z,97618.81
2023-07-30T16:20:36.384Z,97613.78
2023-07-30T16:23:03.155Z,97622.91
2023-07-30T16:25:30.088Z,97627.19
2023-07-30T16:27:57.535Z,97625.78
2023-07-30T16:30:26.835Z,97630.06
2023-07-30T16:32:54.730Z,97630.75
2023-07-30T16:35:22.876Z,97635.81
2023-07-30T16:37:49.670Z,97638.59
2023-07-30T16:40:17.186Z,97641.31
2023-07-30T16:42:43.974Z,97643.06
2023-07-30T16:45:10.975Z,97646.88
2023-07-30T16:47:37.737Z,97654.25
2023-07-30T16:50:07.027Z,97643.50
2023-07-30T16:52:35.110Z,97654.06
2023-07-30T16:55:01.886Z,97649.22
2023-07-30T16:57:30.565Z,97657.22
2023-07-30T16:59:57.348Z,97655.53
2023-07-30T17:02:24.103Z,97651.31
2023-07-30T17:04:51.051Z,97655.50
2023-07-30T17:07:18.073Z,97660.78
2023-07-30T17:09:44.986Z,97651.47
2023-07-30T17:12:11.890Z,97658.66
2023-07-30T17:14:38.665Z,97652.72
2023-07-30T17:17:05.630Z,97665.41
2023-07-30T17:19:32.393Z,97658.03
2023-07-30T17:21:59.234Z,97662.03
2023-07-30T17:24:27.136Z,97669.84
2023-07-30T17:26:55.241Z,97664.38
2023-07-30T17:29:21.967Z,97670.91
2023-07-30T17:31:48.859Z,97671.78
2023-07-30T17:34:15.897Z,97674.06
2023-07-30T17:36:42.692Z,97679.38
2023-07-30T17:39:10.366Z,97682.94
2023-07-30T17:41:37.170Z,97682.75
2023-07-30T17:44:05.485Z,97693.31
2023-07-30T17:46:32.285Z,97693.94
2023-07-30T17:48:59.429Z,97703.69
2023-07-30T17:51:26.221Z,97706.03
2023-07-30T17:53:54.243Z,97713.00
2023-07-30T17:56:21.122Z,97708.34
2023-07-30T17:58:50.127Z,97707.50
2023-07-30T18:01:16.984Z,97720.41
2023-07-30T18:03:44.827Z,97715.31
2023-07-30T18:06:11.795Z,97717.59
2023-07-30T18:08:38.500Z,97729.00
2023-07-30T18:11:07.996Z,97719.72
2023-07-30T18:13:35.940Z,97710.41
2023-07-30T18:16:02.824Z,97705.13
2023-07-30T18:18:29.629Z,97701.50
2023-07-30T18:20:56.500Z,97691.38
2023-07-30T18:23:23.334Z,97691.53
2023-07-30T18:25:50.030Z,97684.56
2023-07-30T18:28:17.003Z,97677.56
2023-07-30T18:30:45.022Z,97675.19
2023-07-30T18:33:11.955Z,97673.66
2023-07-30T18:35:39.420Z,97671.09
2023-07-30T18:38:06.256Z,97675.91
2023-07-30T18:40:36.893Z,97678.81
2023-07-30T18:43:04.698Z,97684.69
2023-07-30T18:45:35.898Z,97684.81
2023-07-30T18:48:03.364Z,97687.72
2023-07-30T18:50:32.113Z,97696.13
2023-07-30T18:52:59.129Z,97696.25
2023-07-30T18:55:26.177Z,97696.78
2023-07-30T18:57:53.200Z,97703.25
2023-07-30T19:00:20.039Z,97709.75
2023-07-30T19:02:48.068Z,97709.22
2023-07-30T19:05:15.051Z,97709.16
2023-07-30T19:07:42.425Z,97714.75
2023-07-30T19:10:09.314Z,97713.00
2023-07-30T19:12:36.139Z,97718.78
2023-07-30T19:15:04.874Z,97722.47
2023-07-30T19:17:31.747Z,97731.47
2023-07-30T19:19:58.738Z,97728.44
2023-07-30T19:22:27.525Z,97736.22
2023-07-30T19:24:55.334Z,97739.69
2023-07-30T19:27:22.210Z,97753.31
2023-07-30T19:29:50.971Z,97763.13
2023-07-30T19:32:18.079Z,97761.16
2023-07-30T19:34:44.889Z,97764.66
2023-07-30T19:37:11.687Z,97765.41
2023-07-30T19:39:38.408Z,97766.81
2023-07-30T19:42:05.547Z,97767.41
2023-07-30T19:44:32.404Z,97770.03
2023-07-30T19:46:59.408Z,97767.84
2023-07-30T19:49:26.955Z,97773.88
2023-07-30T19:51:54.058Z,97775.47
2023-07-30T19:54:20.823Z,97775.00
2023-07-30T19:56:47.605Z,97765.84
2023-07-30T19:59:18.033Z,97758.22
2023-07-30T20:01:44.825Z,97759.16
2023-07-30T20:04:12.541Z,97752.75
2023-07-30T20:06:39.606Z,97757.91
2023-07-30T20:09:07.123Z,97764.41
2023-07-30T20:11:34.261Z,97765.44
2023-07-30T20:14:01.026Z,97759.50
2023-07-30T20:18:54.476Z,97775.78
2023-07-30T20:21:23.931Z,97777.84
2023-07-30T20:23:52.451Z,97783.31
2023-07-30T20:26:19.450Z,97782.66
2023-07-30T20:28:53.274Z,97780.94
2023-07-30T20:31:20.819Z,97773.09
2023-07-30T20:33:50.122Z,97761.53
2023-07-30T20:36:16.869Z,97768.22
2023-07-30T20:38:44.432Z,97763.75
2023-07-30T20:41:12.076Z,97758.88
2023-07-30T20:43:43.033Z,97773.06
2023-07-30T20:46:14.682Z,97763.31
2023-07-30T20:48:42.422Z,97760.78
2023-07-30T20:51:11.749Z,97762.00
2023-07-30T20:53:40.054Z,97759.44
2023-07-30T20:56:07.828Z,97755.22
2023-07-30T20:58:34.599Z,97757.28
2023-07-30T21:01:01.398Z,97763.75
2023-07-30T21:03:28.467Z,97767.16
2023-07-30T21:05:55.276Z,97769.88
2023-07-30T21:08:21.976Z,97762.56
2023-07-30T21:10:49.989Z,97758.78
2023-07-30T21:13:16.814Z,97767.84
2023-07-30T21:15:48.189Z,97761.34
2023-07-30T21:18:16.308Z,97762.19
2023-07-30T21:20:44.072Z,97774.13
2023-07-30T21:23:11.204Z,97766.78
2023-07-30T21:25:38.366Z,97768.84
2023-07-30T21:28:07.873Z,97760.84
2023-07-30T21:30:34.496Z,97763.75
2023-07-30T21:33:02.761Z,97763.09
2023-07-30T21:35:31.062Z,97759.34
2023-07-30T21:37:58.826Z,97762.75
2023-07-30T21:40:26.898Z,97758.59
2023-07-30T21:42:53.819Z,97757.59
2023-07-30T21:45:20.638Z,97758.25
2023-07-30T21:47:48.162Z,97756.38
2023-07-30T21:50:15.176Z,97763.31
2023-07-30T21:52:44.078Z,97758.75
2023-07-30T21:55:11.251Z,97764.69
2023-07-30T21:57:37.984Z,97762.81
2023-07-30T22:00:06.214Z,97755.47
2023-07-30T22:02:33.046Z,97757.84
2023-07-30T22:04:59.893Z,97771.28
2023-07-30T22:07:26.618Z,97760.19
2023-07-30T22:09:53.392Z,97764.63
2023-07-30T22:12:20.165Z,97766.13
2023-07-30T22:14:49.631Z,97767.66
2023-07-30T22:17:16.442Z,97770.84
2023-07-30T22:19:43.276Z,97766.72
2023-07-30T22:22:10.137Z,97760.06
2023-07-30T22:24:36.848Z,97768.53
2023-07-30T22:27:03.808Z,97765.25
2023-07-30T22:29:30.778Z,97773.28
2023-07-30T22:31:57.559Z,97768.66
2023-07-30T22:34:25.671Z,97778.72
2023-07-30T22:36:54.275Z,97785.22
2023-07-30T22:39:20.959Z,97790.00
2023-07-30T22:41:47.762Z,97784.91
2023-07-30T22:44:14.480Z,97782.38
2023-07-30T22:46:41.584Z,97778.13
2023-07-30T22:49:08.626Z,97777.28
2023-07-30T22:51:35.349Z,97776.28
2023-07-30T22:54:02.102Z,97780.19
2023-07-30T22:56:29.101Z,97789.44
2023-07-30T22:58:55.897Z,97780.94
2023-07-30T23:01:22.920Z,97784.59
2023-07-30T23:03:50.547Z,97776.63
2023-07-30T23:06:17.444Z,97765.78
2023-07-30T23:08:44.263Z,97779.28
2023-07-30T23:11:11.053Z,97781.03
2023-07-30T23:13:37.780Z,97781.94
2023-07-30T23:16:05.037Z,97787.97
2023-07-30T23:18:34.706Z,97788.84
2023-07-30T23:21:20.238Z,97786.84
2023-07-30T23:23:48.676Z,97784.84
2023-07-30T23:26:15.448Z,97784.69
2023-07-30T23:28:44.613Z,97786.25
2023-07-30T23:31:13.070Z,97787.16
2023-07-30T23:33:39.876Z,97789.56
2023-07-30T23:36:10.809Z,97794.53
2023-07-30T23:38:38.061Z,97789.41
2023-07-30T23:41:05.536Z,97793.13
2023-07-30T23:43:33.414Z,97793.69
2023-07-30T23:46:00.319Z,97798.47
2023-07-30T23:48:27.163Z,97791.66
2023-07-30T23:51:04.703Z,97792.00
2023-07-30T23:53:33.322Z,97798.00
2023-07-30T23:56:00.159Z,97793.94
2023-07-30T23:58:26.873Z,97788.81
